Grandview on Hudson, New York
Current Conditions -  °F | °C
As of 10:33 PM on Wednesday 22 Oct 2014 (Local Time) from KHPN Reporting Station
Moderate Rain Moderate Rain  
Wind Chill: 50°   Ceiling: 1000
Heat Index: 50°   Visibility: 1.7mi
Dew Point: 46°   Wind: 22mph
Humidity: 87%   Direction: 350°N
Pressure: 29.75"   Gusts: 29mph
Location:  41.0938°N, 73.9254°W
Report Text: KHPN 230233Z 35019G25KT 1 3/4SM RA BR BKN010 OVC015 10/08 A2975 RMK AO2 PK WND 36030/0220 P0024
Loading
Personal Weather Stations






























Interactive Weather Map
Tropical Storm Tracking
New forecast layout! Learn more

10-Day Weather Forecast

Advertisements
Track Severe Weather on mobile